sensor_id;sensor_type;location;lat;lon;timestamp;pressure;altitude;pressure_sealevel;temperature;humidity
72959;BME280;60008;50.826;6.896;2023-04-08T00:00:08;101613.91;;;8.19;100.00
72959;BME280;60008;50.826;6.896;2023-04-08T00:02:53;101617.78;;;8.15;100.00
72959;BME280;60008;50.826;6.896;2023-04-08T00:05:38;101615.97;;;8.15;100.00
72959;BME280;60008;50.826;6.896;2023-04-08T00:08:23;101621.84;;;8.19;100.00
72959;BME280;60008;50.826;6.896;2023-04-08T00:11:08;101615.47;;;8.21;100.00
72959;BME280;60008;50.826;6.896;2023-04-08T00:13:53;101625.09;;;8.22;100.00
72959;BME280;60008;50.826;6.896;2023-04-08T00:16:38;101625.78;;;8.24;100.00
72959;BME280;60008;50.826;6.896;2023-04-08T00:19:23;101623.78;;;8.17;100.00
72959;BME280;60008;50.826;6.896;2023-04-08T00:22:09;101627.59;;;8.24;100.00
72959;BME280;60008;50.826;6.896;2023-04-08T00:24:56;101625.31;;;8.19;100.00
72959;BME280;60008;50.826;6.896;2023-04-08T00:27:41;101625.09;;;8.22;100.00
72959;BME280;60008;50.826;6.896;2023-04-08T00:30:26;101622.09;;;8.27;100.00
72959;BME280;60008;50.826;6.896;2023-04-08T00:33:11;101627.47;;;8.25;100.00
72959;BME280;60008;50.826;6.896;2023-04-08T00:35:56;101626.44;;;8.28;100.00
72959;BME280;60008;50.826;6.896;2023-04-08T00:38:41;101627.47;;;8.25;100.00
72959;BME280;60008;50.826;6.896;2023-04-08T00:41:26;101625.09;;;8.22;100.00
72959;BME280;60008;50.826;6.896;2023-04-08T00:44:11;101627.38;;;8.27;100.00
72959;BME280;60008;50.826;6.896;2023-04-08T00:46:56;101625.47;;;8.18;100.00
72959;BME280;60008;50.826;6.896;2023-04-08T00:49:42;101635.03;;;8.19;100.00
72959;BME280;60008;50.826;6.896;2023-04-08T00:52:27;101631.22;;;8.23;100.00
72959;BME280;60008;50.826;6.896;2023-04-08T00:55:12;101631.06;;;8.24;100.00
72959;BME280;60008;50.826;6.896;2023-04-08T00:57:57;101631.94;;;8.14;100.00
72959;BME280;60008;50.826;6.896;2023-04-08T01:00:53;101633.38;;;8.18;100.00
72959;BME280;60008;50.826;6.896;2023-04-08T01:04:05;101636.50;;;8.12;100.00
72959;BME280;60008;50.826;6.896;2023-04-08T01:09:58;101640.72;;;8.14;100.00
72959;BME280;60008;50.826;6.896;2023-04-08T01:12:53;101642.63;;;8.23;100.00
72959;BME280;60008;50.826;6.896;2023-04-08T01:15:41;101637.19;;;8.25;100.00
72959;BME280;60008;50.826;6.896;2023-04-08T01:18:27;101631.81;;;8.15;100.00
72959;BME280;60008;50.826;6.896;2023-04-08T01:21:14;101633.38;;;8.18;100.00
72959;BME280;60008;50.826;6.896;2023-04-08T01:24:12;101632.78;;;8.14;100.00
72959;BME280;60008;50.826;6.896;2023-04-08T01:27:02;101632.56;;;8.06;100.00
72959;BME280;60008;50.826;6.896;2023-04-08T01:29:48;101639.88;;;8.03;100.00
72959;BME280;60008;50.826;6.896;2023-04-08T01:32:34;101639.63;;;8.06;100.00
72959;BME280;60008;50.826;6.896;2023-04-08T01:35:20;101647.06;;;8.12;100.00
72959;BME280;60008;50.826;6.896;2023-04-08T01:38:08;101640.47;;;8.06;100.00
72959;BME280;60008;50.826;6.896;2023-04-08T01:40:54;101646.00;;;8.14;100.00
72959;BME280;60008;50.826;6.896;2023-04-08T01:43:40;101643.22;;;8.16;100.00
72959;BME280;60008;50.826;6.896;2023-04-08T01:46:28;101636.75;;;8.09;100.00
72959;BME280;60008;50.826;6.896;2023-04-08T01:49:14;101638.94;;;8.04;100.00
72959;BME280;60008;50.826;6.896;2023-04-08T01:52:00;101638.19;;;8.02;100.00
72959;BME280;60008;50.826;6.896;2023-04-08T01:54:46;101650.66;;;8.11;100.00
72959;BME280;60008;50.826;6.896;2023-04-08T01:57:33;101651.03;;;8.06;100.00
72959;BME280;60008;50.826;6.896;2023-04-08T02:00:23;101652.47;;;8.10;100.00
72959;BME280;60008;50.826;6.896;2023-04-08T02:03:11;101654.53;;;8.07;100.00
72959;BME280;60008;50.826;6.896;2023-04-08T02:05:56;101653.31;;;8.11;100.00
72959;BME280;60008;50.826;6.896;2023-04-08T02:08:41;101653.31;;;8.11;100.00
72959;BME280;60008;50.826;6.896;2023-04-08T02:11:26;101644.53;;;7.99;100.00
72959;BME280;60008;50.826;6.896;2023-04-08T02:14:13;101648.50;;;7.94;100.00
72959;BME280;60008;50.826;6.896;2023-04-08T02:17:05;101654.88;;;8.02;100.00
72959;BME280;60008;50.826;6.896;2023-04-08T02:20:04;101657.19;;;7.96;100.00
72959;BME280;60008;50.826;6.896;2023-04-08T02:23:17;101659.22;;;7.92;100.00
72959;BME280;60008;50.826;6.896;2023-04-08T02:26:06;101663.78;;;8.01;100.00
72959;BME280;60008;50.826;6.896;2023-04-08T02:28:53;101667.59;;;8.08;100.00
72959;BME280;60008;50.826;6.896;2023-04-08T02:31:40;101672.50;;;8.02;100.00
72959;BME280;60008;50.826;6.896;2023-04-08T02:34:26;101666.88;;;7.95;100.00
72959;BME280;60008;50.826;6.896;2023-04-08T02:37:11;101667.34;;;8.00;100.00
72959;BME280;60008;50.826;6.896;2023-04-08T02:39:56;101659.81;;;7.96;100.00
72959;BME280;60008;50.826;6.896;2023-04-08T02:42:41;101658.34;;;7.92;100.00
72959;BME280;60008;50.826;6.896;2023-04-08T02:45:31;101664.00;;;7.87;100.00
72959;BME280;60008;50.826;6.896;2023-04-08T02:48:17;101667.38;;;7.89;100.00
72959;BME280;60008;50.826;6.896;2023-04-08T02:51:01;101670.94;;;7.88;100.00
72959;BME280;60008;50.826;6.896;2023-04-08T02:53:47;101667.25;;;7.91;100.00
72959;BME280;60008;50.826;6.896;2023-04-08T02:56:32;101667.72;;;7.85;100.00
72959;BME280;60008;50.826;6.896;2023-04-08T02:59:17;101673.25;;;7.93;100.00
72959;BME280;60008;50.826;6.896;2023-04-08T03:02:02;101669.91;;;7.91;100.00
72959;BME280;60008;50.826;6.896;2023-04-08T03:04:47;101670.59;;;7.93;100.00
72959;BME280;60008;50.826;6.896;2023-04-08T03:07:32;101675.50;;;7.86;100.00
72959;BME280;60008;50.826;6.896;2023-04-08T03:10:17;101674.81;;;7.95;100.00
72959;BME280;60008;50.826;6.896;2023-04-08T03:13:02;101674.44;;;8.00;100.00
72959;BME280;60008;50.826;6.896;2023-04-08T03:15:47;101666.03;;;7.95;100.00
72959;BME280;60008;50.826;6.896;2023-04-08T03:18:32;101676.50;;;7.85;100.00
72959;BME280;60008;50.826;6.896;2023-04-08T03:21:17;101678.03;;;7.76;100.00
72959;BME280;60008;50.826;6.896;2023-04-08T03:24:02;101684.16;;;7.77;100.00
72959;BME280;60008;50.826;6.896;2023-04-08T03:26:47;101688.69;;;7.64;100.00
72959;BME280;60008;50.826;6.896;2023-04-08T03:29:32;101694.81;;;7.64;100.00
72959;BME280;60008;50.826;6.896;2023-04-08T03:32:17;101694.34;;;7.70;100.00
72959;BME280;60008;50.826;6.896;2023-04-08T03:35:04;101699.25;;;7.75;100.00
72959;BME280;60008;50.826;6.896;2023-04-08T03:37:49;101698.78;;;7.81;100.00
72959;BME280;60008;50.826;6.896;2023-04-08T03:40:34;101708.84;;;7.65;100.00
72959;BME280;60008;50.826;6.896;2023-04-08T03:43:19;101702.41;;;7.69;100.00
72959;BME280;60008;50.826;6.896;2023-04-08T03:46:05;101706.56;;;7.60;100.00
72959;BME280;60008;50.826;6.896;2023-04-08T03:48:50;101710.38;;;7.56;100.00
72959;BME280;60008;50.826;6.896;2023-04-08T03:51:35;101705.59;;;7.61;100.00
72959;BME280;60008;50.826;6.896;2023-04-08T03:54:20;101715.19;;;7.62;100.00
72959;BME280;60008;50.826;6.896;2023-04-08T03:57:05;101710.41;;;7.67;100.00
72959;BME280;60008;50.826;6.896;2023-04-08T03:59:50;101716.78;;;7.76;100.00
72959;BME280;60008;50.826;6.896;2023-04-08T04:02:35;101711.50;;;7.76;100.00
72959;BME280;60008;50.826;6.896;2023-04-08T04:05:21;101716.66;;;7.77;100.00
72959;BME280;60008;50.826;6.896;2023-04-08T04:08:06;101713.69;;;7.82;100.00
72959;BME280;60008;50.826;6.896;2023-04-08T04:10:53;101707.78;;;7.78;100.00
72959;BME280;60008;50.826;6.896;2023-04-08T04:13:38;101703.22;;;7.80;100.00
72959;BME280;60008;50.826;6.896;2023-04-08T04:16:22;101704.06;;;7.81;100.00
72959;BME280;60008;50.826;6.896;2023-04-08T04:19:07;101705.28;;;7.77;100.00
72959;BME280;60008;50.826;6.896;2023-04-08T04:21:52;101708.63;;;7.79;100.00
72959;BME280;60008;50.826;6.896;2023-04-08T04:24:37;101709.25;;;7.83;100.00
72959;BME280;60008;50.826;6.896;2023-04-08T04:27:22;101710.66;;;7.87;100.00
72959;BME280;60008;50.826;6.896;2023-04-08T04:30:08;101720.28;;;7.88;100.00
72959;BME280;60008;50.826;6.896;2023-04-08T04:32:53;101710.91;;;7.84;100.00
72959;BME280;60008;50.826;6.896;2023-04-08T04:35:39;101722.78;;;7.78;100.00
72959;BME280;60008;50.826;6.896;2023-04-08T04:38:24;101725.88;;;7.83;100.00
72959;BME280;60008;50.826;6.896;2023-04-08T04:41:10;101732.00;;;7.84;100.00
72959;BME280;60008;50.826;6.896;2023-04-08T04:43:56;101745.94;;;7.86;100.00
72959;BME280;60008;50.826;6.896;2023-04-08T04:46:41;101747.50;;;7.77;100.00
72959;BME280;60008;50.826;6.896;2023-04-08T04:49:26;101725.53;;;7.76;100.00
72959;BME280;60008;50.826;6.896;2023-04-08T04:52:11;101735.72;;;7.70;100.00
72959;BME280;60008;50.826;6.896;2023-04-08T04:54:57;101734.75;;;7.60;100.00
72959;BME280;60008;50.826;6.896;2023-04-08T04:57:42;101735.81;;;7.57;100.00
72959;BME280;60008;50.826;6.896;2023-04-08T05:00:28;101735.69;;;7.59;100.00
72959;BME280;60008;50.826;6.896;2023-04-08T05:03:13;101740.50;;;7.65;100.00
72959;BME280;60008;50.826;6.896;2023-04-08T05:05:58;101744.59;;;7.69;100.00
72959;BME280;60008;50.826;6.896;2023-04-08T05:08:43;101743.41;;;7.73;100.00
72959;BME280;60008;50.826;6.896;2023-04-08T05:11:29;101747.13;;;7.82;100.00
72959;BME280;60008;50.826;6.896;2023-04-08T05:14:14;101753.59;;;7.77;100.00
72959;BME280;60008;50.826;6.896;2023-04-08T05:16:59;101751.78;;;7.78;100.00
72959;BME280;60008;50.826;6.896;2023-04-08T05:19:44;101743.78;;;7.91;100.00
72959;BME280;60008;50.826;6.896;2023-04-08T05:22:30;101747.13;;;7.82;100.00
72959;BME280;60008;50.826;6.896;2023-04-08T05:25:15;101752.66;;;7.90;100.00
72959;BME280;60008;50.826;6.896;2023-04-08T05:27:59;101752.03;;;7.86;100.00
72959;BME280;60008;50.826;6.896;2023-04-08T05:30:51;101750.63;;;7.82;100.00
72959;BME280;60008;50.826;6.896;2023-04-08T05:33:36;101745.34;;;7.82;100.00
72959;BME280;60008;50.826;6.896;2023-04-08T05:36:21;101757.94;;;7.90;100.00
72959;BME280;60008;50.826;6.896;2023-04-08T05:39:06;101745.13;;;7.96;100.00
72959;BME280;60008;50.826;6.896;2023-04-08T05:41:51;101753.38;;;8.03;100.00
72959;BME280;60008;50.826;6.896;2023-04-08T05:44:36;101744.84;;;7.99;100.00
72959;BME280;60008;50.826;6.896;2023-04-08T05:47:22;101753.38;;;7.92;100.00
72959;BME280;60008;50.826;6.896;2023-04-08T05:50:07;101746.69;;;7.99;100.00
72959;BME280;60008;50.826;6.896;2023-04-08T05:52:52;101752.22;;;8.07;100.00
72959;BME280;60008;50.826;6.896;2023-04-08T05:55:37;101758.66;;;8.03;100.00
72959;BME280;60008;50.826;6.896;2023-04-08T05:58:22;101765.97;;;8.10;100.00
72959;BME280;60008;50.826;6.896;2023-04-08T06:01:07;101769.81;;;7.95;100.00
72959;BME280;60008;50.826;6.896;2023-04-08T06:03:52;101769.38;;;8.12;100.00
72959;BME280;60008;50.826;6.896;2023-04-08T06:06:40;101764.31;;;8.20;100.00
72959;BME280;60008;50.826;6.896;2023-04-08T06:09:25;101772.72;;;8.25;100.00
72959;BME280;60008;50.826;6.896;2023-04-08T06:12:10;101774.06;;;8.31;100.00
72959;BME280;60008;50.826;6.896;2023-04-08T06:14:55;101774.19;;;8.29;100.00
72959;BME280;60008;50.826;6.896;2023-04-08T06:17:40;101775.75;;;8.32;100.00
72959;BME280;60008;50.826;6.896;2023-04-08T06:20:24;101781.63;;;8.35;100.00
72959;BME280;60008;50.826;6.896;2023-04-08T06:23:10;101788.22;;;8.30;100.00
72959;BME280;60008;50.826;6.896;2023-04-08T06:25:54;101784.94;;;8.26;100.00
72959;BME280;60008;50.826;6.896;2023-04-08T06:28:39;101792.44;;;8.32;100.00
72959;BME280;60008;50.826;6.896;2023-04-08T06:31:25;101788.94;;;8.32;100.00
72959;BME280;60008;50.826;6.896;2023-04-08T06:34:10;101798.78;;;8.41;100.00
72959;BME280;60008;50.826;6.896;2023-04-08T06:36:54;101793.41;;;8.31;100.00
72959;BME280;60008;50.826;6.896;2023-04-08T06:39:40;101792.91;;;8.37;100.00
72959;BME280;60008;50.826;6.896;2023-04-08T06:42:25;101800.59;;;8.41;100.00
72959;BME280;60008;50.826;6.896;2023-04-08T06:45:10;101791.25;;;8.36;100.00
72959;BME280;60008;50.826;6.896;2023-04-08T06:47:55;101801.31;;;8.43;100.00
72959;BME280;60008;50.826;6.896;2023-04-08T06:50:41;101800.50;;;8.42;100.00
72959;BME280;60008;50.826;6.896;2023-04-08T06:53:27;101805.41;;;8.47;100.00
72959;BME280;60008;50.826;6.896;2023-04-08T06:56:16;101801.19;;;8.44;100.00
72959;BME280;60008;50.826;6.896;2023-04-08T06:59:02;101804.56;;;8.46;100.00
72959;BME280;60008;50.826;6.896;2023-04-08T07:01:49;101796.50;;;8.25;100.00
72959;BME280;60008;50.826;6.896;2023-04-08T07:04:34;101793.16;;;8.34;100.00
72959;BME280;60008;50.826;6.896;2023-04-08T07:07:19;101797.63;;;8.45;100.00
72959;BME280;60008;50.826;6.896;2023-04-08T07:10:05;101794.69;;;8.48;100.00
72959;BME280;60008;50.826;6.896;2023-04-08T07:12:53;101803.47;;;8.49;100.00
72959;BME280;60008;50.826;6.896;2023-04-08T07:15:38;101800.44;;;8.64;100.00
72959;BME280;60008;50.826;6.896;2023-04-08T07:18:22;101796.16;;;8.63;100.00
72959;BME280;60008;50.826;6.896;2023-04-08T07:21:08;101797.63;;;8.45;100.00
72959;BME280;60008;50.826;6.896;2023-04-08T07:23:52;101802.38;;;8.40;100.00
72959;BME280;60008;50.826;6.896;2023-04-08T07:26:37;101812.38;;;8.48;100.00
72959;BME280;60008;50.826;6.896;2023-04-08T07:29:23;101816.81;;;8.58;100.00
72959;BME280;60008;50.826;6.896;2023-04-08T07:32:08;101811.63;;;8.68;100.00
72959;BME280;60008;50.826;6.896;2023-04-08T07:34:52;101804.56;;;8.57;100.00
72959;BME280;60008;50.826;6.896;2023-04-08T07:37:37;101810.69;;;8.69;100.00
72959;BME280;60008;50.826;6.896;2023-04-08T07:40:22;101817.53;;;8.60;100.00
72959;BME280;60008;50.826;6.896;2023-04-08T07:43:07;101816.19;;;8.77;100.00
72959;BME280;60008;50.826;6.896;2023-04-08T07:45:59;101824.72;;;8.80;100.00
72959;BME280;60008;50.826;6.896;2023-04-08T07:48:44;101826.59;;;9.01;100.00
72959;BME280;60008;50.826;6.896;2023-04-08T07:51:29;101828.06;;;8.93;100.00
72959;BME280;60008;50.826;6.896;2023-04-08T07:54:14;101827.03;;;9.17;100.00
72959;BME280;60008;50.826;6.896;2023-04-08T07:57:01;101831.13;;;9.21;100.00
72959;BME280;60008;50.826;6.896;2023-04-08T07:59:46;101825.63;;;9.02;100.00
72959;BME280;60008;50.826;6.896;2023-04-08T08:02:32;101828.13;;;9.14;100.00
72959;BME280;60008;50.826;6.896;2023-04-08T08:05:17;101832.00;;;9.10;100.00
72959;BME280;60008;50.826;6.896;2023-04-08T08:08:03;101836.41;;;9.52;100.00
72959;BME280;60008;50.826;6.896;2023-04-08T08:10:48;101828.00;;;9.68;100.00
72959;BME280;60008;50.826;6.896;2023-04-08T08:13:33;101829.97;;;9.87;100.00
72959;BME280;60008;50.826;6.896;2023-04-08T08:16:18;101816.91;;;9.74;100.00
72959;BME280;60008;50.826;6.896;2023-04-08T08:19:03;101820.72;;;10.02;100.00
72959;BME280;60008;50.826;6.896;2023-04-08T08:21:51;101819.16;;;10.41;100.00
72959;BME280;60008;50.826;6.896;2023-04-08T08:24:35;101814.63;;;10.11;100.00
72959;BME280;60008;50.826;6.896;2023-04-08T08:27:21;101815.88;;;10.28;100.00
72959;BME280;60008;50.826;6.896;2023-04-08T08:30:07;101822.25;;;10.46;100.00
72959;BME280;60008;50.826;6.896;2023-04-08T08:32:53;101825.31;;;9.79;100.00
72959;BME280;60008;50.826;6.896;2023-04-08T08:35:38;101826.03;;;10.02;100.00
72959;BME280;60008;50.826;6.896;2023-04-08T08:38:23;101815.22;;;10.35;100.00
72959;BME280;60008;50.826;6.896;2023-04-08T08:41:08;101816.84;;;10.57;100.00
72959;BME280;60008;50.826;6.896;2023-04-08T08:43:53;101819.59;;;10.86;100.00
72959;BME280;60008;50.826;6.896;2023-04-08T08:46:46;101822.75;;;10.70;100.00
72959;BME280;60008;50.826;6.896;2023-04-08T08:49:31;101823.47;;;10.42;100.00
72959;BME280;60008;50.826;6.896;2023-04-08T08:52:16;101819.31;;;9.98;100.00
72959;BME280;60008;50.826;6.896;2023-04-08T08:55:02;101819.63;;;10.25;100.00
72959;BME280;60008;50.826;6.896;2023-04-08T08:58:07;101826.72;;;10.04;100.00
72959;BME280;60008;50.826;6.896;2023-04-08T09:00:52;101831.50;;;9.89;100.00
72959;BME280;60008;50.826;6.896;2023-04-08T09:03:37;101836.38;;;10.26;100.00
72959;BME280;60008;50.826;6.896;2023-04-08T09:06:23;101832.50;;;10.30;100.00
72959;BME280;60008;50.826;6.896;2023-04-08T09:09:08;101835.09;;;10.50;100.00
72959;BME280;60008;50.826;6.896;2023-04-08T09:12:02;101837.16;;;10.47;100.00
72959;BME280;60008;50.826;6.896;2023-04-08T09:14:48;101836.69;;;10.32;100.00
72959;BME280;60008;50.826;6.896;2023-04-08T09:17:35;101838.25;;;10.35;100.00
72959;BME280;60008;50.826;6.896;2023-04-08T09:20:20;101830.13;;;10.36;100.00
72959;BME280;60008;50.826;6.896;2023-04-08T09:23:04;101834.22;;;10.70;100.00
72959;BME280;60008;50.826;6.896;2023-04-08T09:25:49;101823.78;;;10.88;100.00
72959;BME280;60008;50.826;6.896;2023-04-08T09:28:35;101824.78;;;10.97;100.00
72959;BME280;60008;50.826;6.896;2023-04-08T09:31:21;101832.19;;;11.12;100.00
72959;BME280;60008;50.826;6.896;2023-04-08T09:34:13;101839.06;;;11.34;100.00
72959;BME280;60008;50.826;6.896;2023-04-08T09:37:00;101831.31;;;10.93;100.00
72959;BME280;60008;50.826;6.896;2023-04-08T09:39:45;101843.44;;;10.86;100.00
72959;BME280;60008;50.826;6.896;2023-04-08T09:42:30;101835.38;;;11.06;100.00
72959;BME280;60008;50.826;6.896;2023-04-08T09:45:17;101836.81;;;10.61;100.00
72959;BME280;60008;50.826;6.896;2023-04-08T09:48:21;101850.00;;;10.82;100.00
72959;BME280;60008;50.826;6.896;2023-04-08T09:51:11;101850.41;;;10.77;100.00
72959;BME280;60008;50.826;6.896;2023-04-08T09:54:02;101851.84;;;10.51;100.00
72959;BME280;60008;50.826;6.896;2023-04-08T09:56:52;101848.44;;;10.79;100.00
72959;BME280;60008;50.826;6.896;2023-04-08T09:59:44;101840.16;;;11.03;100.00
72959;BME280;60008;50.826;6.896;2023-04-08T10:02:40;101848.38;;;11.09;100.00
72959;BME280;60008;50.826;6.896;2023-04-08T10:05:29;101847.56;;;11.28;100.00
72959;BME280;60008;50.826;6.896;2023-04-08T10:08:15;101848.50;;;10.89;100.00
72959;BME280;60008;50.826;6.896;2023-04-08T10:11:00;101839.91;;;13.02;100.00
72959;BME280;60008;50.826;6.896;2023-04-08T10:13:45;101838.56;;;12.34;100.00
72959;BME280;60008;50.826;6.896;2023-04-08T10:16:32;101832.31;;;12.16;100.00
72959;BME280;60008;50.826;6.896;2023-04-08T10:19:36;101834.03;;;12.08;100.00
72959;BME280;60008;50.826;6.896;2023-04-08T10:31:03;101842.41;;;11.17;100.00
72959;BME280;60008;50.826;6.896;2023-04-08T10:33:48;101847.72;;;11.26;100.00
72959;BME280;60008;50.826;6.896;2023-04-08T10:36:33;101841.91;;;10.93;100.00
72959;BME280;60008;50.826;6.896;2023-04-08T10:39:20;101847.88;;;11.44;100.00
72959;BME280;60008;50.826;6.896;2023-04-08T10:42:07;101840.63;;;11.65;100.00
72959;BME280;60008;50.826;6.896;2023-04-08T10:44:52;101846.31;;;11.22;100.00
72959;BME280;60008;50.826;6.896;2023-04-08T10:47:37;101829.84;;;11.48;100.00
72959;BME280;60008;50.826;6.896;2023-04-08T10:50:22;101835.59;;;11.62;100.00
72959;BME280;60008;50.826;6.896;2023-04-08T10:53:07;101840.38;;;11.78;100.00
72959;BME280;60008;50.826;6.896;2023-04-08T10:55:53;101838.50;;;10.71;100.00
72959;BME280;60008;50.826;6.896;2023-04-08T10:58:54;101831.50;;;11.20;100.00
72959;BME280;60008;50.826;6.896;2023-04-08T11:01:44;101835.16;;;11.28;100.00
72959;BME280;60008;50.826;6.896;2023-04-08T11:04:29;101845.38;;;11.43;100.00
72959;BME280;60008;50.826;6.896;2023-04-08T11:07:14;101843.84;;;11.88;100.00
72959;BME280;60008;50.826;6.896;2023-04-08T11:10:02;101844.97;;;11.76;100.00
72959;BME280;60008;50.826;6.896;2023-04-08T11:12:48;101847.88;;;11.63;100.00
72959;BME280;60008;50.826;6.896;2023-04-08T11:15:34;101836.19;;;10.88;100.00
72959;BME280;60008;50.826;6.896;2023-04-08T11:18:20;101837.97;;;11.56;100.00
72959;BME280;60008;50.826;6.896;2023-04-08T11:21:08;101836.88;;;11.87;100.00
72959;BME280;60008;50.826;6.896;2023-04-08T11:23:53;101832.66;;;12.04;100.00
72959;BME280;60008;50.826;6.896;2023-04-08T11:26:39;101838.78;;;11.37;100.00
72959;BME280;60008;50.826;6.896;2023-04-08T11:29:25;101830.97;;;11.64;100.00
72959;BME280;60008;50.826;6.896;2023-04-08T11:32:10;101834.75;;;11.52;100.00
72959;BME280;60008;50.826;6.896;2023-04-08T11:34:55;101832.50;;;11.67;100.00
72959;BME280;60008;50.826;6.896;2023-04-08T11:37:43;101825.13;;;11.89;100.00
72959;BME280;60008;50.826;6.896;2023-04-08T11:40:28;101833.19;;;12.07;100.00
72959;BME280;60008;50.826;6.896;2023-04-08T11:43:13;101819.94;;;11.30;100.00
72959;BME280;60008;50.826;6.896;2023-04-08T11:46:10;101823.16;;;11.34;100.00
72959;BME280;60008;50.826;6.896;2023-04-08T11:49:08;101821.34;;;11.54;100.00
72959;BME280;60008;50.826;6.896;2023-04-08T11:51:58;101821.38;;;11.73;100.00
72959;BME280;60008;50.826;6.896;2023-04-08T11:54:47;101817.84;;;11.34;100.00
72959;BME280;60008;50.826;6.896;2023-04-08T11:57:34;101824.97;;;11.43;100.00
72959;BME280;60008;50.826;6.896;2023-04-08T12:00:20;101821.31;;;11.44;100.00
72959;BME280;60008;50.826;6.896;2023-04-08T12:03:06;101820.78;;;11.60;100.00
72959;BME280;60008;50.826;6.896;2023-04-08T12:05:52;101820.78;;;11.69;100.00
72959;BME280;60008;50.826;6.896;2023-04-08T12:08:38;101813.53;;;11.81;100.00
72959;BME280;60008;50.826;6.896;2023-04-08T12:11:23;101819.13;;;11.78;100.00
72959;BME280;60008;50.826;6.896;2023-04-08T12:14:08;101820.50;;;11.72;100.00
72959;BME280;60008;50.826;6.896;2023-04-08T12:16:58;101829.13;;;11.36;100.00
72959;BME280;60008;50.826;6.896;2023-04-08T12:19:43;101824.38;;;11.20;100.00
72959;BME280;60008;50.826;6.896;2023-04-08T12:22:28;101824.00;;;11.34;100.00
72959;BME280;60008;50.826;6.896;2023-04-08T12:25:16;101835.69;;;11.03;100.00
72959;BME280;60008;50.826;6.896;2023-04-08T12:28:01;101832.16;;;10.93;100.00
72959;BME280;60008;50.826;6.896;2023-04-08T12:30:48;101829.28;;;11.15;100.00
72959;BME280;60008;50.826;6.896;2023-04-08T12:33:34;101835.91;;;10.91;100.00
72959;BME280;60008;50.826;6.896;2023-04-08T12:36:20;101826.97;;;10.82;100.00
72959;BME280;60008;50.826;6.896;2023-04-08T12:39:07;101838.22;;;10.65;100.00
72959;BME280;60008;50.826;6.896;2023-04-08T12:41:51;101840.38;;;10.81;100.00
72959;BME280;60008;50.826;6.896;2023-04-08T12:44:36;101841.75;;;10.75;100.00
72959;BME280;60008;50.826;6.896;2023-04-08T12:47:24;101837.41;;;10.74;100.00
72959;BME280;60008;50.826;6.896;2023-04-08T12:50:16;101837.72;;;10.90;100.00
72959;BME280;60008;50.826;6.896;2023-04-08T12:53:01;101832.16;;;10.93;100.00
72959;BME280;60008;50.826;6.896;2023-04-08T12:55:48;101838.47;;;11.02;100.00
72959;BME280;60008;50.826;6.896;2023-04-08T12:58:35;101832.69;;;10.87;100.00
72959;BME280;60008;50.826;6.896;2023-04-08T13:01:22;101842.75;;;10.84;100.00
72959;BME280;60008;50.826;6.896;2023-04-08T13:04:09;101835.59;;;10.74;100.00
72959;BME280;60008;50.826;6.896;2023-04-08T13:06:55;101832.78;;;10.66;100.00
72959;BME280;60008;50.826;6.896;2023-04-08T13:09:43;101838.41;;;10.83;100.00
72959;BME280;60008;50.826;6.896;2023-04-08T13:12:33;101826.59;;;10.96;100.00
72959;BME280;60008;50.826;6.896;2023-04-08T13:15:18;101836.81;;;11.20;100.00
72959;BME280;60008;50.826;6.896;2023-04-08T13:18:03;101825.47;;;10.99;100.00
72959;BME280;60008;50.826;6.896;2023-04-08T13:20:48;101820.19;;;11.18;100.00
72959;BME280;60008;50.826;6.896;2023-04-08T13:23:34;101824.66;;;11.08;100.00
72959;BME280;60008;50.826;6.896;2023-04-08T13:26:21;101825.78;;;11.34;100.00
72959;BME280;60008;50.826;6.896;2023-04-08T13:29:06;101828.19;;;11.47;100.00
72959;BME280;60008;50.826;6.896;2023-04-08T13:31:51;101814.91;;;11.85;100.00
72959;BME280;60008;50.826;6.896;2023-04-08T13:34:36;101809.88;;;11.44;100.00
72959;BME280;60008;50.826;6.896;2023-04-08T13:37:21;101815.03;;;11.64;100.00
72959;BME280;60008;50.826;6.896;2023-04-08T13:40:06;101806.25;;;11.83;100.00
72959;BME280;60008;50.826;6.896;2023-04-08T13:42:52;101819.53;;;11.92;100.00
72959;BME280;60008;50.826;6.896;2023-04-08T13:45:37;101817.13;;;11.99;100.00
72959;BME280;60008;50.826;6.896;2023-04-08T13:48:22;101815.91;;;11.84;100.00
72959;BME280;60008;50.826;6.896;2023-04-08T13:51:07;101814.19;;;11.64;100.00
72959;BME280;60008;50.826;6.896;2023-04-08T13:53:52;101817.31;;;11.78;100.00
72959;BME280;60008;50.826;6.896;2023-04-08T13:56:40;101812.97;;;11.77;100.00
72959;BME280;60008;50.826;6.896;2023-04-08T14:02:14;101810.03;;;11.52;100.00
72959;BME280;60008;50.826;6.896;2023-04-08T14:05:04;101807.78;;;11.47;100.00
72959;BME280;60008;50.826;6.896;2023-04-08T14:07:49;101810.16;;;11.41;100.00
72959;BME280;60008;50.826;6.896;2023-04-08T14:10:34;101810.06;;;11.71;100.00
72959;BME280;60008;50.826;6.896;2023-04-08T14:13:19;101804.03;;;11.69;100.00
72959;BME280;60008;50.826;6.896;2023-04-08T14:16:04;101795.91;;;11.89;100.00
72959;BME280;60008;50.826;6.896;2023-04-08T14:18:49;101802.75;;;11.92;100.00
72959;BME280;60008;50.826;6.896;2023-04-08T14:21:43;101805.41;;;11.82;100.00
72959;BME280;60008;50.826;6.896;2023-04-08T14:24:30;101809.88;;;11.24;100.00
72959;BME280;60008;50.826;6.896;2023-04-08T14:27:15;101804.69;;;11.13;100.00
72959;BME280;60008;50.826;6.896;2023-04-08T14:30:00;101811.25;;;11.28;100.00
72959;BME280;60008;50.826;6.896;2023-04-08T14:32:45;101812.53;;;11.34;100.00
72959;BME280;60008;50.826;6.896;2023-04-08T14:35:30;101806.50;;;11.61;100.00
72959;BME280;60008;50.826;6.896;2023-04-08T14:38:16;101812.09;;;11.67;100.00